Time;durP1;ratioP1;P1;durP2;ratioP2;P2;SDS_P1;SDS_P2;PMS_P1;PMS_P2;Temp;Humidity;BMP_temperature;BMP_pressure;BME280_temperature;BME280_humidity;BME280_pressure;Samples;Min_cycle;Max_cycle;Signal;HPM_P1;HPM_P2
2023/01/28 00:02:07;;;;;;;3.73;3.07;;;;;;;;;;5078823;28;20548;-70
2023/01/28 00:04:34;;;;;;;2.83;1.90;;;;;;;;;;5086187;28;20896;-70
2023/01/28 00:07:01;;;;;;;5.73;3.67;;;;;;;;;;5079217;28;20451;-70
2023/01/28 00:09:30;;;;;;;5.27;2.73;;;;;;;;;;5084559;28;20555;-71
2023/01/28 00:11:57;;;;;;;5.40;2.70;;;;;;;;;;5077694;28;20468;-70
2023/01/28 00:14:24;;;;;;;3.40;2.63;;;;;;;;;;5078636;28;20947;-70
2023/01/28 00:16:52;;;;;;;4.40;2.70;;;;;;;;;;5086258;28;20452;-70
2023/01/28 00:19:19;;;;;;;3.70;2.73;;;;;;;;;;5081481;28;20531;-67
2023/01/28 00:21:46;;;;;;;2.63;2.40;;;;;;;;;;5088676;28;20490;-71
2023/01/28 00:24:14;;;;;;;2.00;1.80;;;;;;;;;;5089026;28;20450;-74
2023/01/28 00:26:42;;;;;;;5.63;3.10;;;;;;;;;;5090548;28;20490;-69
2023/01/28 00:29:09;;;;;;;4.33;2.30;;;;;;;;;;5087950;28;20993;-69
2023/01/28 00:31:37;;;;;;;2.80;2.50;;;;;;;;;;5089175;28;20449;-70
2023/01/28 00:34:04;;;;;;;5.00;2.93;;;;;;;;;;5080727;28;20446;-71
2023/01/28 00:36:31;;;;;;;3.20;2.37;;;;;;;;;;5086793;28;20458;-71
2023/01/28 00:38:59;;;;;;;6.53;3.30;;;;;;;;;;5083697;28;20818;-71
2023/01/28 00:41:27;;;;;;;7.70;4.13;;;;;;;;;;5086981;28;20517;-70
2023/01/28 00:43:55;;;;;;;4.60;2.50;;;;;;;;;;5079484;28;20475;-69
2023/01/28 00:46:24;;;;;;;3.83;2.27;;;;;;;;;;5089075;28;20496;-70
2023/01/28 00:48:51;;;;;;;4.43;2.40;;;;;;;;;;5091225;28;20447;-70
2023/01/28 00:51:19;;;;;;;3.60;2.30;;;;;;;;;;5090439;28;20536;-70
2023/01/28 00:53:46;;;;;;;2.80;2.07;;;;;;;;;;5087963;28;20823;-72
2023/01/28 00:56:14;;;;;;;3.23;2.10;;;;;;;;;;5088439;28;20461;-69
2023/01/28 00:58:42;;;;;;;5.30;2.70;;;;;;;;;;5087159;28;20540;-70
2023/01/28 01:01:12;;;;;;;4.40;2.37;;;;;;;;;;5081942;28;20540;-67
2023/01/28 01:03:39;;;;;;;3.83;2.57;;;;;;;;;;5087642;28;20744;-69
2023/01/28 01:06:06;;;;;;;6.30;3.20;;;;;;;;;;5080976;28;20454;-69
2023/01/28 01:08:38;;;;;;;4.43;2.70;;;;;;;;;;5081524;28;20433;-67
2023/01/28 01:11:06;;;;;;;3.13;2.23;;;;;;;;;;5073899;28;20458;-69
2023/01/28 01:13:34;;;;;;;4.50;2.27;;;;;;;;;;5083685;28;20936;-69
2023/01/28 01:16:02;;;;;;;3.77;2.53;;;;;;;;;;5084592;28;20458;-69
2023/01/28 01:18:30;;;;;;;2.80;1.73;;;;;;;;;;5087636;28;20451;-69
2023/01/28 01:20:58;;;;;;;7.10;3.70;;;;;;;;;;5089673;28;20485;-70
2023/01/28 01:23:26;;;;;;;2.90;2.20;;;;;;;;;;5088387;28;20441;-70
2023/01/28 01:25:54;;;;;;;2.93;1.80;;;;;;;;;;5088423;28;20445;-67
2023/01/28 01:28:21;;;;;;;6.70;2.73;;;;;;;;;;5085942;28;20923;-67
2023/01/28 01:30:48;;;;;;;5.83;2.87;;;;;;;;;;5085020;28;20462;-69
2023/01/28 01:33:16;;;;;;;4.00;2.73;;;;;;;;;;5086804;28;20856;-69
2023/01/28 01:35:44;;;;;;;3.63;2.73;;;;;;;;;;5082832;28;20526;-68
2023/01/28 01:38:11;;;;;;;2.83;2.60;;;;;;;;;;5083568;28;20457;-71
2023/01/28 01:40:39;;;;;;;4.90;2.50;;;;;;;;;;5077387;28;20456;-69
2023/01/28 01:43:15;;;;;;;4.20;2.30;;;;;;;;;;5083730;28;20452;-69
2023/01/28 01:45:42;;;;;;;4.57;2.40;;;;;;;;;;5080853;28;20464;-71
2023/01/28 01:48:14;;;;;;;3.73;2.70;;;;;;;;;;5089753;28;20456;-69
2023/01/28 01:50:43;;;;;;;4.37;3.10;;;;;;;;;;5085485;28;20437;-70
2023/01/28 01:53:12;;;;;;;3.70;2.13;;;;;;;;;;5084887;28;20529;-70
2023/01/28 01:55:41;;;;;;;4.90;2.50;;;;;;;;;;5088739;28;20445;-70
2023/01/28 01:58:11;;;;;;;3.57;2.23;;;;;;;;;;5091532;28;20449;-70
2023/01/28 02:00:38;;;;;;;4.23;2.70;;;;;;;;;;5091320;28;20453;-73
2023/01/28 02:03:05;;;;;;;3.70;2.03;;;;;;;;;;5090961;28;20807;-71
2023/01/28 02:05:32;;;;;;;2.83;2.20;;;;;;;;;;5088115;28;20451;-70
2023/01/28 02:08:19;;;;;;;3.37;2.30;;;;;;;;;;5089966;28;20455;-70
2023/01/28 02:10:49;;;;;;;4.40;2.13;;;;;;;;;;5079932;28;21005;-70
2023/01/28 02:13:17;;;;;;;3.20;2.83;;;;;;;;;;5092108;28;20456;-69
2023/01/28 02:15:45;;;;;;;5.13;2.40;;;;;;;;;;5091990;28;20443;-69
2023/01/28 02:18:12;;;;;;;4.93;3.93;;;;;;;;;;5091704;28;20463;-71
2023/01/28 02:20:45;;;;;;;4.03;2.30;;;;;;;;;;5090713;28;21070;-70
2023/01/28 02:23:25;;;;;;;3.63;2.70;;;;;;;;;;5086099;28;20453;-70
2023/01/28 02:26:11;;;;;;;5.67;2.87;;;;;;;;;;5091215;28;20451;-70
2023/01/28 02:28:42;;;;;;;6.13;2.70;;;;;;;;;;5090871;28;20935;-70
2023/01/28 02:31:11;;;;;;;2.33;2.10;;;;;;;;;;5091360;28;20445;-70
2023/01/28 02:33:41;;;;;;;5.47;2.10;;;;;;;;;;5090590;28;20440;-70
2023/01/28 02:36:13;;;;;;;2.53;2.20;;;;;;;;;;5090484;28;20463;-70
2023/01/28 02:38:42;;;;;;;3.27;2.00;;;;;;;;;;5088008;28;20812;-70
2023/01/28 02:41:11;;;;;;;2.53;1.77;;;;;;;;;;5090646;28;20812;-70
2023/01/28 02:43:41;;;;;;;3.13;1.57;;;;;;;;;;5089978;28;20446;-70
2023/01/28 02:49:01;;;;;;;2.13;1.30;;;;;;;;;;5087523;28;20415;-70
2023/01/28 02:51:32;;;;;;;4.73;2.20;;;;;;;;;;5090774;28;20455;-70
2023/01/28 02:54:03;;;;;;;1.23;1.13;;;;;;;;;;5091035;28;20472;-70
2023/01/28 02:56:33;;;;;;;2.00;1.80;;;;;;;;;;5090531;28;20859;-69
2023/01/28 03:01:57;;;;;;;3.00;2.00;;;;;;;;;;5076779;28;20473;-69
2023/01/28 03:04:25;;;;;;;3.40;2.40;;;;;;;;;;5089638;28;20485;-70
2023/01/28 03:06:55;;;;;;;5.70;2.70;;;;;;;;;;5090935;28;20475;-70
2023/01/28 03:09:24;;;;;;;2.93;2.30;;;;;;;;;;5089959;28;20459;-72
2023/01/28 03:36:52;;;;;;;2.97;1.77;;;;;;;;;;5090501;28;20438;-70
2023/01/28 03:39:20;;;;;;;5.67;3.20;;;;;;;;;;5091003;28;20809;-72
2023/01/28 03:41:57;;;;;;;7.57;3.07;;;;;;;;;;5090485;28;20484;-73
2023/01/28 03:47:12;;;;;;;4.50;3.20;;;;;;;;;;5077580;28;20956;-72
2023/01/28 03:49:39;;;;;;;5.20;2.73;;;;;;;;;;5090175;28;20954;-72
2023/01/28 03:52:07;;;;;;;4.00;3.40;;;;;;;;;;5090486;28;20457;-72
2023/01/28 03:54:34;;;;;;;2.53;2.27;;;;;;;;;;5089323;28;20802;-72
2023/01/28 03:57:01;;;;;;;5.57;2.67;;;;;;;;;;5094186;28;20445;-71
2023/01/28 03:59:28;;;;;;;4.03;2.77;;;;;;;;;;5082523;28;20446;-72
2023/01/28 04:01:55;;;;;;;7.60;3.30;;;;;;;;;;5094533;28;20481;-72
2023/01/28 04:04:24;;;;;;;4.87;2.97;;;;;;;;;;5093510;28;20469;-72
2023/01/28 04:06:51;;;;;;;5.93;3.17;;;;;;;;;;5094170;28;20452;-71
2023/01/28 04:09:18;;;;;;;4.23;2.20;;;;;;;;;;5094201;28;20439;-72
2023/01/28 04:11:45;;;;;;;3.07;2.07;;;;;;;;;;5094535;28;20462;-72
2023/01/28 04:14:14;;;;;;;4.53;2.57;;;;;;;;;;5093803;28;20819;-73
2023/01/28 04:16:41;;;;;;;3.73;2.40;;;;;;;;;;5093480;28;20445;-72
2023/01/28 04:19:08;;;;;;;3.17;2.87;;;;;;;;;;5094460;28;20778;-72
2023/01/28 04:21:37;;;;;;;4.53;2.80;;;;;;;;;;5093604;28;20478;-72
2023/01/28 04:24:04;;;;;;;5.47;2.83;;;;;;;;;;5093645;28;20448;-72
2023/01/28 04:26:31;;;;;;;7.40;3.80;;;;;;;;;;5093504;28;20442;-71
2023/01/28 04:28:58;;;;;;;3.70;3.33;;;;;;;;;;5093652;28;20455;-72
2023/01/28 04:31:25;;;;;;;5.93;2.33;;;;;;;;;;5093347;28;20455;-72
2023/01/28 04:33:53;;;;;;;5.47;3.37;;;;;;;;;;5093445;28;20787;-72
2023/01/28 04:36:20;;;;;;;3.30;3.00;;;;;;;;;;5093115;28;20484;-68
2023/01/28 04:38:48;;;;;;;2.73;2.53;;;;;;;;;;5093926;28;20467;-72
2023/01/28 04:41:15;;;;;;;7.23;3.10;;;;;;;;;;5093310;28;20454;-72
2023/01/28 04:43:42;;;;;;;10.10;3.93;;;;;;;;;;5092495;28;20449;-72
2023/01/28 04:46:09;;;;;;;5.83;3.37;;;;;;;;;;5093725;28;20456;-72
2023/01/28 04:48:37;;;;;;;6.70;3.40;;;;;;;;;;5092976;28;20448;-72
2023/01/28 04:51:04;;;;;;;6.30;4.17;;;;;;;;;;5093523;28;20451;-69
2023/01/28 04:53:31;;;;;;;5.50;3.17;;;;;;;;;;5092585;28;20454;-72
2023/01/28 04:56:00;;;;;;;2.60;2.27;;;;;;;;;;5093409;28;20889;-72
2023/01/28 04:58:27;;;;;;;8.67;4.80;;;;;;;;;;5088711;28;20442;-72
2023/01/28 05:00:56;;;;;;;6.13;2.80;;;;;;;;;;5084937;28;20451;-72
2023/01/28 05:03:23;;;;;;;3.80;2.57;;;;;;;;;;5091791;28;21002;-72
2023/01/28 05:05:50;;;;;;;5.70;3.00;;;;;;;;;;5093125;28;20904;-69
2023/01/28 05:08:17;;;;;;;3.87;3.10;;;;;;;;;;5092108;28;20451;-73
2023/01/28 05:10:45;;;;;;;4.37;3.60;;;;;;;;;;5093207;28;20451;-72
2023/01/28 05:13:13;;;;;;;4.13;2.80;;;;;;;;;;5092631;28;20553;-69
2023/01/28 05:15:40;;;;;;;5.03;3.23;;;;;;;;;;5092218;28;20456;-69
2023/01/28 05:18:07;;;;;;;4.63;2.70;;;;;;;;;;5092956;28;20440;-72
2023/01/28 05:20:34;;;;;;;3.77;3.20;;;;;;;;;;5092381;28;20452;-72
2023/01/28 05:23:01;;;;;;;4.07;2.50;;;;;;;;;;5092311;28;20484;-71
2023/01/28 05:25:28;;;;;;;7.00;3.67;;;;;;;;;;5092200;28;20455;-72
2023/01/28 05:27:56;;;;;;;5.57;2.77;;;;;;;;;;5093021;28;20555;-72
2023/01/28 05:30:24;;;;;;;5.50;4.40;;;;;;;;;;5092083;28;20463;-72
2023/01/28 05:32:55;;;;;;;3.97;2.80;;;;;;;;;;5092814;28;20457;-72
2023/01/28 05:35:22;;;;;;;4.43;2.60;;;;;;;;;;5092012;28;20445;-70
2023/01/28 05:37:49;;;;;;;4.70;2.93;;;;;;;;;;5092840;28;20442;-69
2023/01/28 05:40:16;;;;;;;7.17;3.53;;;;;;;;;;5092389;28;20459;-72
2023/01/28 05:42:43;;;;;;;4.40;2.53;;;;;;;;;;5091535;28;20496;-71
2023/01/28 05:45:11;;;;;;;4.20;2.63;;;;;;;;;;5091927;28;20476;-72
2023/01/28 05:47:39;;;;;;;7.13;4.60;;;;;;;;;;5092014;28;20449;-72
2023/01/28 05:50:07;;;;;;;4.47;2.47;;;;;;;;;;5092317;28;20449;-72
2023/01/28 05:52:34;;;;;;;5.40;3.93;;;;;;;;;;5091823;28;20452;-73
2023/01/28 05:55:01;;;;;;;4.73;2.67;;;;;;;;;;5092026;28;20801;-72
2023/01/28 05:57:29;;;;;;;2.90;2.10;;;;;;;;;;5082940;28;20489;-70
2023/01/28 05:59:56;;;;;;;4.80;4.07;;;;;;;;;;5090778;28;20541;-70
2023/01/28 06:02:23;;;;;;;7.87;2.60;;;;;;;;;;5091758;28;20487;-70
2023/01/28 06:04:52;;;;;;;5.70;2.43;;;;;;;;;;5091568;28;20455;-72
2023/01/28 06:07:19;;;;;;;3.93;2.90;;;;;;;;;;5092491;28;20451;-70
2023/01/28 06:09:47;;;;;;;4.30;2.97;;;;;;;;;;5092260;28;20443;-70
2023/01/28 06:12:14;;;;;;;5.70;3.23;;;;;;;;;;5091922;28;20592;-70
2023/01/28 06:14:41;;;;;;;4.50;2.70;;;;;;;;;;5091232;28;20452;-70
2023/01/28 06:17:09;;;;;;;4.27;3.23;;;;;;;;;;5091976;28;20450;-71
2023/01/28 06:19:36;;;;;;;3.93;2.63;;;;;;;;;;5077792;28;20451;-70
2023/01/28 06:22:04;;;;;;;5.70;3.10;;;;;;;;;;5091939;28;20441;-70
2023/01/28 06:24:31;;;;;;;2.33;2.10;;;;;;;;;;5091159;28;20457;-69
2023/01/28 06:26:58;;;;;;;6.07;3.30;;;;;;;;;;5091984;28;20807;-70
2023/01/28 06:29:25;;;;;;;7.60;3.73;;;;;;;;;;5091499;28;20452;-70
2023/01/28 06:31:53;;;;;;;9.03;3.97;;;;;;;;;;5091780;28;20464;-69
2023/01/28 06:34:20;;;;;;;4.53;3.80;;;;;;;;;;5090620;28;20455;-67
2023/01/28 06:36:47;;;;;;;4.90;2.90;;;;;;;;;;5091854;28;20441;-72
2023/01/28 06:39:15;;;;;;;7.23;4.17;;;;;;;;;;5091585;28;20447;-70
2023/01/28 06:41:42;;;;;;;4.17;2.97;;;;;;;;;;5091005;28;20450;-70
2023/01/28 06:44:10;;;;;;;7.10;3.23;;;;;;;;;;5090650;28;20964;-70
2023/01/28 06:46:37;;;;;;;3.10;2.77;;;;;;;;;;5090735;28;20453;-70
2023/01/28 06:49:04;;;;;;;3.57;2.60;;;;;;;;;;5091547;28;20456;-69
2023/01/28 06:51:31;;;;;;;6.23;3.23;;;;;;;;;;5090948;28;20652;-70
2023/01/28 06:53:58;;;;;;;3.10;2.53;;;;;;;;;;5091266;28;20455;-70
2023/01/28 06:56:26;;;;;;;4.50;2.63;;;;;;;;;;5090844;28;20448;-72
2023/01/28 06:58:54;;;;;;;7.20;3.60;;;;;;;;;;5083730;28;20437;-70
2023/01/28 07:01:21;;;;;;;3.77;2.63;;;;;;;;;;5087326;28;20462;-70
2023/01/28 07:03:48;;;;;;;5.53;3.07;;;;;;;;;;5090866;28;21014;-70
2023/01/28 07:06:15;;;;;;;3.83;2.57;;;;;;;;;;5091605;28;20458;-70
2023/01/28 07:08:42;;;;;;;5.27;4.47;;;;;;;;;;5090903;28;20447;-72
2023/01/28 07:11:09;;;;;;;5.00;2.97;;;;;;;;;;5091006;28;20466;-70
2023/01/28 07:13:37;;;;;;;6.60;3.23;;;;;;;;;;5090231;28;20459;-70
2023/01/28 07:16:05;;;;;;;3.83;3.20;;;;;;;;;;5092461;28;20450;-70
2023/01/28 07:18:32;;;;;;;5.50;3.80;;;;;;;;;;5094681;28;20454;-69
2023/01/28 07:20:59;;;;;;;5.30;3.07;;;;;;;;;;5098890;28;20433;-70
2023/01/28 07:23:26;;;;;;;5.23;2.50;;;;;;;;;;5098355;28;20485;-70
2023/01/28 07:25:53;;;;;;;2.90;2.60;;;;;;;;;;5099794;28;20448;-70
2023/01/28 07:28:21;;;;;;;16.20;3.90;;;;;;;;;;5099979;28;20456;-69
2023/01/28 07:30:50;;;;;;;5.40;4.13;;;;;;;;;;5102272;28;20853;-70
2023/01/28 07:33:17;;;;;;;8.10;3.20;;;;;;;;;;5104536;28;20458;-70
2023/01/28 07:35:45;;;;;;;4.07;3.20;;;;;;;;;;5105407;28;20451;-70
2023/01/28 07:38:13;;;;;;;5.13;3.07;;;;;;;;;;5105758;28;20818;-70
2023/01/28 07:40:41;;;;;;;3.70;2.87;;;;;;;;;;5092415;28;20550;-70
2023/01/28 07:43:08;;;;;;;9.87;5.17;;;;;;;;;;5105266;28;20505;-70
2023/01/28 07:45:35;;;;;;;4.70;3.50;;;;;;;;;;5105291;28;20463;-70
2023/01/28 07:48:05;;;;;;;3.73;2.90;;;;;;;;;;5107071;28;20445;-70
2023/01/28 07:50:33;;;;;;;6.90;4.90;;;;;;;;;;5095613;28;20450;-69
2023/01/28 07:53:02;;;;;;;6.10;3.60;;;;;;;;;;5094928;28;20452;-72
2023/01/28 07:55:30;;;;;;;6.40;3.57;;;;;;;;;;5094571;28;20452;-70
2023/01/28 07:57:58;;;;;;;5.60;3.03;;;;;;;;;;5094265;28;20448;-70
2023/01/28 08:00:26;;;;;;;6.60;4.10;;;;;;;;;;5083854;28;20447;-70
2023/01/28 08:02:56;;;;;;;6.63;3.67;;;;;;;;;;5093985;28;20481;-70
2023/01/28 08:05:25;;;;;;;3.37;2.33;;;;;;;;;;5093745;28;20579;-70
2023/01/28 08:07:53;;;;;;;5.60;3.83;;;;;;;;;;5094376;28;20488;-71
2023/01/28 08:10:20;;;;;;;4.03;2.33;;;;;;;;;;5094065;28;20478;-67
2023/01/28 08:12:53;;;;;;;6.37;3.40;;;;;;;;;;5094205;28;20795;-71
2023/01/28 08:15:20;;;;;;;5.10;3.50;;;;;;;;;;5093547;28;20445;-70
2023/01/28 08:17:48;;;;;;;5.47;3.40;;;;;;;;;;5094536;28;20447;-70
2023/01/28 08:20:15;;;;;;;5.60;4.17;;;;;;;;;;5094386;28;20449;-70
2023/01/28 08:22:43;;;;;;;6.20;3.33;;;;;;;;;;5092908;28;20453;-70
2023/01/28 08:25:10;;;;;;;6.43;3.80;;;;;;;;;;5094063;28;20456;-71
2023/01/28 08:27:38;;;;;;;5.20;3.43;;;;;;;;;;5093605;28;20803;-70
2023/01/28 08:30:05;;;;;;;5.33;4.00;;;;;;;;;;5094196;28;20452;-70
2023/01/28 08:32:33;;;;;;;4.27;3.03;;;;;;;;;;5093510;28;20472;-70
2023/01/28 08:35:00;;;;;;;8.50;4.00;;;;;;;;;;5093563;28;20445;-70
2023/01/28 08:37:27;;;;;;;4.80;4.10;;;;;;;;;;5093247;28;20448;-72
2023/01/28 08:39:55;;;;;;;6.33;3.50;;;;;;;;;;5093515;28;20433;-69
2023/01/28 08:42:22;;;;;;;9.90;5.10;;;;;;;;;;5079705;28;20630;-70
2023/01/28 08:44:50;;;;;;;3.83;3.33;;;;;;;;;;5092640;28;20493;-69
2023/01/28 08:47:17;;;;;;;4.17;3.17;;;;;;;;;;5094101;28;20512;-69
2023/01/28 08:49:44;;;;;;;6.30;3.20;;;;;;;;;;5092569;28;20976;-70
2023/01/28 08:52:11;;;;;;;6.47;4.23;;;;;;;;;;5080903;28;20449;-70
2023/01/28 08:54:38;;;;;;;5.27;3.80;;;;;;;;;;5092748;28;20449;-71
2023/01/28 08:57:06;;;;;;;6.43;3.87;;;;;;;;;;5093333;28;20449;-71
2023/01/28 08:59:33;;;;;;;6.20;4.30;;;;;;;;;;5080793;28;20480;-71
2023/01/28 09:02:00;;;;;;;5.33;3.60;;;;;;;;;;5093731;28;20461;-70
2023/01/28 09:04:28;;;;;;;5.60;4.20;;;;;;;;;;5092557;28;20476;-73
2023/01/28 09:06:55;;;;;;;5.67;3.90;;;;;;;;;;5093254;28;20975;-70
2023/01/28 09:09:22;;;;;;;6.03;4.03;;;;;;;;;;5092905;28;20459;-70
2023/01/28 09:11:49;;;;;;;7.93;4.57;;;;;;;;;;5093374;28;20935;-71
2023/01/28 09:14:17;;;;;;;8.60;3.33;;;;;;;;;;5093024;28;20459;-71
2023/01/28 09:16:45;;;;;;;4.97;2.90;;;;;;;;;;5093801;28;20472;-70
2023/01/28 09:19:12;;;;;;;4.77;3.77;;;;;;;;;;5093263;28;20818;-71
2023/01/28 09:21:39;;;;;;;4.13;3.23;;;;;;;;;;5092819;28;20683;-71
2023/01/28 09:24:07;;;;;;;10.07;5.23;;;;;;;;;;5092367;28;20484;-71
2023/01/28 09:26:34;;;;;;;5.20;4.07;;;;;;;;;;5092246;28;20812;-70
2023/01/28 09:29:01;;;;;;;10.47;4.87;;;;;;;;;;5093078;28;20446;-71
2023/01/28 09:31:29;;;;;;;6.87;4.20;;;;;;;;;;5083913;28;20454;-71
2023/01/28 09:33:56;;;;;;;6.43;5.10;;;;;;;;;;5090503;28;20448;-71
2023/01/28 09:36:23;;;;;;;11.43;6.00;;;;;;;;;;5092528;28;20456;-71
2023/01/28 09:38:51;;;;;;;5.10;3.37;;;;;;;;;;5092945;28;20450;-70
2023/01/28 09:41:24;;;;;;;7.90;3.97;;;;;;;;;;5092569;28;20936;-71
2023/01/28 09:43:56;;;;;;;6.73;4.83;;;;;;;;;;5078658;28;20509;-71
2023/01/28 09:46:33;;;;;;;10.73;5.97;;;;;;;;;;5091882;28;20552;-71
2023/01/28 09:49:03;;;;;;;9.57;4.40;;;;;;;;;;5092826;28;20751;-71
2023/01/28 09:51:34;;;;;;;8.03;4.93;;;;;;;;;;5092269;28;20459;-71
2023/01/28 09:54:04;;;;;;;8.03;4.47;;;;;;;;;;5091680;28;20452;-71
2023/01/28 09:56:32;;;;;;;9.67;5.73;;;;;;;;;;5091901;28;20444;-71
2023/01/28 09:59:02;;;;;;;8.17;4.27;;;;;;;;;;5092553;28;20449;-72
2023/01/28 10:01:36;;;;;;;8.17;4.77;;;;;;;;;;5091621;28;20453;-71
2023/01/28 10:04:07;;;;;;;8.57;4.63;;;;;;;;;;5091847;28;20546;-72
2023/01/28 10:06:43;;;;;;;7.20;4.10;;;;;;;;;;5078289;28;20453;-71
2023/01/28 10:09:17;;;;;;;6.87;4.53;;;;;;;;;;5092050;28;20463;-71
2023/01/28 10:11:51;;;;;;;6.50;3.97;;;;;;;;;;5091543;28;20460;-71
2023/01/28 10:14:23;;;;;;;8.10;4.47;;;;;;;;;;5091847;28;20444;-71
2023/01/28 10:16:51;;;;;;;8.23;4.60;;;;;;;;;;5091514;28;20445;-70
2023/01/28 10:19:22;;;;;;;11.53;5.90;;;;;;;;;;5092188;28;20783;-71
2023/01/28 10:21:53;;;;;;;7.77;4.13;;;;;;;;;;5092142;28;20444;-70
2023/01/28 10:24:24;;;;;;;7.90;4.37;;;;;;;;;;5090982;28;20479;-68
2023/01/28 10:26:52;;;;;;;4.60;3.80;;;;;;;;;;5091797;28;20453;-70
2023/01/28 10:29:20;;;;;;;7.40;4.37;;;;;;;;;;5091736;28;20785;-67
2023/01/28 10:31:53;;;;;;;9.20;4.90;;;;;;;;;;5092084;28;20445;-71
2023/01/28 10:34:22;;;;;;;8.27;3.47;;;;;;;;;;5090752;28;20452;-70
2023/01/28 10:36:50;;;;;;;4.80;4.10;;;;;;;;;;5091867;28;20433;-70
2023/01/28 10:39:17;;;;;;;5.10;3.57;;;;;;;;;;5091705;28;20441;-70
2023/01/28 10:41:45;;;;;;;8.73;5.80;;;;;;;;;;5091192;28;20456;-71
2023/01/28 10:44:17;;;;;;;7.17;5.37;;;;;;;;;;5091149;28;20496;-71
2023/01/28 10:46:45;;;;;;;7.77;4.00;;;;;;;;;;5091413;28;20506;-70
2023/01/28 10:49:14;;;;;;;9.70;4.43;;;;;;;;;;5091693;28;20801;-71
2023/01/28 10:51:43;;;;;;;8.83;4.90;;;;;;;;;;5090975;28;20448;-70
2023/01/28 10:54:21;;;;;;;8.60;5.33;;;;;;;;;;5091188;28;20473;-71
2023/01/28 10:56:49;;;;;;;10.27;3.97;;;;;;;;;;5091156;28;20847;-70
2023/01/28 10:59:20;;;;;;;7.60;4.50;;;;;;;;;;5080735;28;20449;-71
2023/01/28 11:01:49;;;;;;;7.40;4.80;;;;;;;;;;5077997;28;20445;-71
2023/01/28 11:04:18;;;;;;;9.73;5.33;;;;;;;;;;5090219;28;20476;-70
2023/01/28 11:06:54;;;;;;;6.60;4.50;;;;;;;;;;5091028;28;20806;-72
2023/01/28 11:09:22;;;;;;;6.70;4.73;;;;;;;;;;5090737;28;20449;-70
2023/01/28 11:11:49;;;;;;;5.67;4.23;;;;;;;;;;5090941;28;20461;-71
2023/01/28 11:14:20;;;;;;;7.90;3.90;;;;;;;;;;5090991;28;20459;-71
2023/01/28 11:16:47;;;;;;;8.03;4.50;;;;;;;;;;5091446;28;20467;-71
2023/01/28 11:19:14;;;;;;;7.20;4.67;;;;;;;;;;5090841;28;20447;-70
2023/01/28 11:21:48;;;;;;;11.83;4.37;;;;;;;;;;5090317;28;20449;-70
2023/01/28 11:24:19;;;;;;;7.43;4.20;;;;;;;;;;5090411;28;20471;-71
2023/01/28 11:26:49;;;;;;;9.83;5.10;;;;;;;;;;5091157;28;20446;-72
2023/01/28 11:29:23;;;;;;;6.70;4.30;;;;;;;;;;5089584;28;20443;-71
2023/01/28 11:31:50;;;;;;;6.77;3.90;;;;;;;;;;5084509;28;20442;-69
2023/01/28 11:34:18;;;;;;;9.50;4.83;;;;;;;;;;5090258;28;20953;-69
2023/01/28 11:36:50;;;;;;;7.90;5.30;;;;;;;;;;5085504;28;20455;-71
2023/01/28 11:39:21;;;;;;;7.83;4.23;;;;;;;;;;5091121;28;20437;-71
2023/01/28 11:41:49;;;;;;;10.63;4.90;;;;;;;;;;5091055;28;20457;-71
2023/01/28 11:44:17;;;;;;;7.77;4.33;;;;;;;;;;5090343;28;20496;-71
2023/01/28 11:46:58;;;;;;;10.30;4.63;;;;;;;;;;5090215;28;20504;-75
2023/01/28 11:49:33;;;;;;;8.07;5.13;;;;;;;;;;5087821;28;20562;-73
2023/01/28 11:52:05;;;;;;;6.20;4.07;;;;;;;;;;5089966;28;20440;-73
2023/01/28 11:54:43;;;;;;;7.40;5.50;;;;;;;;;;5087517;28;20930;-73
2023/01/28 11:57:23;;;;;;;9.00;4.80;;;;;;;;;;5086243;28;20438;-72
2023/01/28 11:59:58;;;;;;;9.90;5.20;;;;;;;;;;5087813;28;20478;-73
2023/01/28 12:02:31;;;;;;;5.00;3.97;;;;;;;;;;5089053;28;20944;-72
2023/01/28 12:05:06;;;;;;;9.43;4.70;;;;;;;;;;5084323;28;20462;-72
2023/01/28 12:07:39;;;;;;;6.70;3.90;;;;;;;;;;5081525;28;20556;-72
2023/01/28 12:10:15;;;;;;;8.77;3.97;;;;;;;;;;5087837;28;20456;-71
2023/01/28 12:12:50;;;;;;;9.77;5.07;;;;;;;;;;5085307;28;20452;-71
2023/01/28 12:15:36;;;;;;;10.37;4.53;;;;;;;;;;5087938;28;20474;-72
2023/01/28 12:18:11;;;;;;;8.60;4.40;;;;;;;;;;5090513;28;20454;-72
2023/01/28 12:20:40;;;;;;;11.70;5.47;;;;;;;;;;5089680;28;20932;-69
2023/01/28 12:23:31;;;;;;;6.37;3.87;;;;;;;;;;5089240;28;20452;-69
2023/01/28 12:26:04;;;;;;;9.70;4.90;;;;;;;;;;5066487;28;20482;-69
2023/01/28 12:28:39;;;;;;;12.57;5.83;;;;;;;;;;5089239;28;20444;-70
2023/01/28 12:31:14;;;;;;;9.20;4.20;;;;;;;;;;5091112;28;20452;-71
2023/01/28 12:33:57;;;;;;;8.07;4.73;;;;;;;;;;5087065;28;20448;-71
2023/01/28 12:36:31;;;;;;;8.87;5.90;;;;;;;;;;5090346;28;20535;-71
2023/01/28 12:39:02;;;;;;;11.83;4.80;;;;;;;;;;5091359;28;20938;-71
2023/01/28 12:41:33;;;;;;;11.73;5.50;;;;;;;;;;5090503;28;21404;-69
2023/01/28 12:44:02;;;;;;;8.50;5.20;;;;;;;;;;5090658;28;20474;-69
2023/01/28 12:46:42;;;;;;;10.57;5.70;;;;;;;;;;5090909;28;20446;-70
2023/01/28 12:49:10;;;;;;;6.53;5.00;;;;;;;;;;5090245;28;20446;-69
2023/01/28 12:51:41;;;;;;;7.07;4.00;;;;;;;;;;5086622;28;20967;-68
2023/01/28 12:54:12;;;;;;;8.57;4.53;;;;;;;;;;5081617;28;20464;-68
2023/01/28 12:56:42;;;;;;;9.20;3.90;;;;;;;;;;5090543;28;20860;-68
2023/01/28 12:59:13;;;;;;;6.33;4.07;;;;;;;;;;5090013;28;20455;-72
2023/01/28 13:01:42;;;;;;;5.67;3.83;;;;;;;;;;5082606;28;20952;-70
2023/01/28 13:04:11;;;;;;;8.73;4.87;;;;;;;;;;5088921;28;20860;-71
2023/01/28 13:06:40;;;;;;;9.30;5.10;;;;;;;;;;5088912;28;20811;-75
2023/01/28 13:09:14;;;;;;;8.07;4.23;;;;;;;;;;5086936;28;20460;-73
2023/01/28 13:11:43;;;;;;;9.17;4.63;;;;;;;;;;5090718;28;20816;-72
2023/01/28 13:14:12;;;;;;;8.17;5.40;;;;;;;;;;5092390;28;20461;-72
2023/01/28 13:16:39;;;;;;;8.87;3.77;;;;;;;;;;5092792;28;20720;-72
2023/01/28 13:19:08;;;;;;;8.60;3.33;;;;;;;;;;5092899;28;20448;-72
2023/01/28 13:21:36;;;;;;;8.10;3.07;;;;;;;;;;5092462;28;20803;-73
2023/01/28 13:24:05;;;;;;;9.67;3.70;;;;;;;;;;5093086;28;20543;-72
2023/01/28 13:26:38;;;;;;;6.80;4.80;;;;;;;;;;5092776;28;20472;-72
2023/01/28 13:29:18;;;;;;;6.67;3.60;;;;;;;;;;5092235;28;20441;-73
2023/01/28 13:31:46;;;;;;;6.40;3.20;;;;;;;;;;5093559;28;20441;-73
2023/01/28 13:34:28;;;;;;;5.03;3.20;;;;;;;;;;5093103;28;20456;-73
2023/01/28 13:36:56;;;;;;;4.57;2.57;;;;;;;;;;5094777;28;20453;-72
2023/01/28 13:39:24;;;;;;;3.60;2.67;;;;;;;;;;5099964;28;20449;-72
2023/01/28 13:41:52;;;;;;;4.20;2.83;;;;;;;;;;5101183;28;20453;-72
2023/01/28 13:44:27;;;;;;;5.10;2.53;;;;;;;;;;5104493;28;20480;-66
2023/01/28 13:46:55;;;;;;;5.27;2.60;;;;;;;;;;5106705;28;20449;-72
2023/01/28 13:49:26;;;;;;;3.40;2.13;;;;;;;;;;5106231;28;20511;-72
2023/01/28 13:51:58;;;;;;;3.83;3.10;;;;;;;;;;5108191;28;20515;-72
2023/01/28 13:54:25;;;;;;;4.53;3.37;;;;;;;;;;5108245;28;20525;-75
2023/01/28 13:57:02;;;;;;;5.10;2.90;;;;;;;;;;5095367;28;20476;-73
2023/01/28 13:59:39;;;;;;;5.90;3.80;;;;;;;;;;5107276;28;20491;-73
2023/01/28 14:02:24;;;;;;;5.40;3.47;;;;;;;;;;5094921;28;20455;-70
2023/01/28 14:04:57;;;;;;;5.53;3.90;;;;;;;;;;5092853;28;20507;-72
2023/01/28 14:07:35;;;;;;;5.80;3.13;;;;;;;;;;5092589;28;20445;-73
2023/01/28 14:10:12;;;;;;;6.50;4.00;;;;;;;;;;5092630;28;20818;-73
2023/01/28 14:12:55;;;;;;;6.10;3.70;;;;;;;;;;5091545;28;20540;-73
2023/01/28 14:15:42;;;;;;;6.07;3.20;;;;;;;;;;5091844;28;20452;-73
2023/01/28 14:18:14;;;;;;;4.50;3.13;;;;;;;;;;5080694;28;20456;-74
2023/01/28 14:20:44;;;;;;;9.70;4.00;;;;;;;;;;5091188;28;20921;-72
2023/01/28 14:23:15;;;;;;;6.80;3.03;;;;;;;;;;5091763;28;20451;-72
2023/01/28 14:25:49;;;;;;;5.07;3.37;;;;;;;;;;5091440;28;20469;-73
2023/01/28 14:28:19;;;;;;;9.27;3.10;;;;;;;;;;5092108;28;20451;-73
2023/01/28 14:30:50;;;;;;;5.50;4.53;;;;;;;;;;5091737;28;20924;-73
2023/01/28 14:33:19;;;;;;;4.90;3.50;;;;;;;;;;5091699;28;20444;-73
2023/01/28 14:35:47;;;;;;;4.77;2.63;;;;;;;;;;5091593;28;20445;-73
2023/01/28 14:38:15;;;;;;;4.53;3.10;;;;;;;;;;5091601;28;20528;-74
2023/01/28 14:40:50;;;;;;;13.23;4.00;;;;;;;;;;5077134;28;20458;-73
2023/01/28 14:43:21;;;;;;;5.17;2.57;;;;;;;;;;5091246;28;20441;-76
2023/01/28 14:45:59;;;;;;;7.73;3.50;;;;;;;;;;5091475;28;20498;-76
2023/01/28 14:48:32;;;;;;;4.63;3.00;;;;;;;;;;5090626;28;20959;-76
2023/01/28 14:51:04;;;;;;;6.83;4.00;;;;;;;;;;5091773;28;20441;-73
2023/01/28 14:53:38;;;;;;;7.90;3.30;;;;;;;;;;5090614;28;20437;-73
2023/01/28 14:56:08;;;;;;;4.93;3.03;;;;;;;;;;5091654;28;20479;-73
2023/01/28 14:58:37;;;;;;;4.83;3.73;;;;;;;;;;5090715;28;20452;-73
2023/01/28 15:01:06;;;;;;;5.67;3.37;;;;;;;;;;5091394;28;20457;-73
2023/01/28 15:03:35;;;;;;;3.93;2.63;;;;;;;;;;5090532;28;20803;-74
2023/01/28 15:06:03;;;;;;;4.83;2.70;;;;;;;;;;5091015;28;20478;-73
2023/01/28 15:08:31;;;;;;;2.60;2.20;;;;;;;;;;5090934;28;20448;-74
2023/01/28 15:10:59;;;;;;;3.33;2.90;;;;;;;;;;5091168;28;20436;-74
2023/01/28 15:13:28;;;;;;;6.77;3.03;;;;;;;;;;5090250;28;20447;-73
2023/01/28 15:15:57;;;;;;;3.90;3.30;;;;;;;;;;5091200;28;20458;-73
2023/01/28 15:18:28;;;;;;;3.07;2.80;;;;;;;;;;5090527;28;20480;-73
2023/01/28 15:20:57;;;;;;;4.03;2.10;;;;;;;;;;5090918;28;20444;-73
2023/01/28 15:23:26;;;;;;;7.83;4.27;;;;;;;;;;5090271;28;20455;-73
2023/01/28 15:25:54;;;;;;;5.23;2.93;;;;;;;;;;5091168;28;20483;-73
2023/01/28 15:28:25;;;;;;;6.60;3.00;;;;;;;;;;5090221;28;20950;-73
2023/01/28 15:30:53;;;;;;;4.20;2.77;;;;;;;;;;5091234;28;20441;-73